• Join FlightAware (Why Join?)
  • Login
  • US Flag 
Rudolph Flight #1: Arrived! 
03:05AM EST


 

Airport Tracker/Info


-or-


 

Live Flight TrackerFlight Track Log ✈ EJA695 ✈ 13-Jul-2013 ✈ KFTW - KBWI

Flight Track Log - Related Links

Times and Time Zones

All times are in EDT time to prevent confusion due to time zone crossing. See the EJA695 flight status page for this flight to view local times or setup timezone preferences in your user account.

Time Position Orientation Groundspeed Altitude Reporting Facility
EDT Latitude Longitude Course Direction KTS MPH feet Rate Location/Type
09:30AM 32.8000 -97.3500 177° South 151 174 1,400  Level Dallas / Fort Worth TRACON
09:32AM 32.7186 -97.3442 177° South 239 275 4,900 2,280 Climbing Fort Worth Center
09:33AM 32.6706 -97.2556 123° Southeast 278 320 7,400 2,280 Climbing Fort Worth Center
09:34AM 32.6494 -97.1839 109° East 315 362 9,500 2,220 Climbing Fort Worth Center
09:35AM 32.6389 -97.0853 97° East 296 341 11,900 1,980 Climbing Fort Worth Center
09:36AM 32.6636 -97.0014 71° East 281 323 13,500 1,560 Climbing Fort Worth Center
09:37AM 32.6800 -96.8903 80° East 301 346 15,100 1,620 Climbing Fort Worth Center
09:38AM 32.6942 -96.7989 80° East 317 365 16,800 1,800 Climbing Fort Worth Center
09:39AM 32.7081 -96.6850 82° East 312 359 18,700 1,680 Climbing Fort Worth Center
09:40AM 32.7222 -96.5936 80° East 312 359 20,200 1,500 Climbing Fort Worth Center
09:41AM 32.7361 -96.4800 82° East 312 359 21,700 1,260 Climbing Fort Worth Center
09:42AM 32.7497 -96.3833 80° East 317 365 22,800 1,140 Climbing Fort Worth Center
09:43AM 32.7656 -96.2622 81° East 323 372 24,000 1,140 Climbing Fort Worth Center
09:44AM 32.7811 -96.1508 81° East 335 386 25,100 1,140 Climbing Fort Worth Center
09:45AM 32.7967 -96.0369 81° East 335 386 26,300 1,020 Climbing Fort Worth Center
09:46AM 32.8100 -95.9256 82° East 335 386 27,200 840 Climbing Fort Worth Center
09:47AM 32.8231 -95.8092 82° East 340 391 28,000 780 Climbing Fort Worth Center
09:48AM 32.8383 -95.6875 81° East 358 412 28,800 780 Climbing Fort Worth Center
09:49AM 32.8553 -95.5661 81° East 364 419 29,600 780 Climbing Fort Worth Center
09:50AM 32.8681 -95.4472 83° East 364 419 30,400 840 Climbing Fort Worth Center
09:51AM 32.8872 -95.3281 79° East 369 425 31,300 900 Climbing Fort Worth Center
09:52AM 32.9039 -95.2139 80° East 364 419 32,300 1,020 Climbing Fort Worth Center
09:53AM 32.9186 -95.0994 81° East 359 413 33,400 1,080 Climbing Fort Worth Center
09:54AM 32.9375 -94.9878 79° East 349 402 34,500 1,020 Climbing Fort Worth Center
09:55AM 32.9539 -94.8783 80° East 344 396 35,500 1,020 Climbing Fort Worth Center
09:56AM 32.9706 -94.7689 80° East 333 383 36,600 1,020 Climbing Fort Worth Center
09:57AM 32.9850 -94.6644 81° East 333 383 37,600 840 Climbing Fort Worth Center
09:58AM 33.0014 -94.5575 80° East 328 377 38,300 660 Climbing Fort Worth Center
09:59AM 33.0156 -94.4531 81° East 328 377 39,000 660 Climbing Fort Worth Center
10:00AM 33.0319 -94.3458 80° East 328 377 39,700 660 Climbing Fort Worth Center
10:01AM 33.0461 -94.2414 81° East 328 377 40,400 600 Climbing Fort Worth Center
10:02AM 33.0600 -94.1342 81° East 323 372 41,000 300 Climbing Fort Worth Center
10:03AM 33.0758 -94.0269 80° East 323 372 41,000  Level Fort Worth Center
10:04AM 33.0917 -93.9125 81° East 330 380 41,000  Level Fort Worth Center
10:05AM 33.1092 -93.8000 79° East 336 387 41,000  Level Fort Worth Center
10:06AM 33.1247 -93.6831 81° East 342 394 41,000  Level Fort Worth Center
10:07AM 33.1419 -93.5681 80° East 347 399 41,000  Level Fort Worth Center
10:08AM 33.1592 -93.4508 80° East 353 406 41,000  Level Fort Worth Center
10:09AM 33.1764 -93.3358 80° East 353 406 41,000  Level Fort Worth Center
10:10AM 33.1936 -93.2208 80° East 353 406 41,000  Level Fort Worth Center
10:11AM 33.2083 -93.1033 81° East 353 406 41,000  Level Fort Worth Center
10:12AM 33.2250 -92.9861 80° East 353 406 41,000  Level Fort Worth Center
10:13AM 33.2397 -92.8686 81° East 353 406 41,000  Level Fort Worth Center
10:14AM 33.2564 -92.7533 80° East 353 406 41,000  Level Fort Worth Center
10:15AM 33.2686 -92.6386 83° East 353 406 41,000  Level Fort Worth Center
10:16AM 33.2789 -92.5211 84° East 353 406 41,000  Level Fort Worth Center
10:18AM 33.2997 -92.3108 83° East 353 406 41,000  Level Memphis Center
10:19AM 33.3097 -92.1917 84° East 353 406 41,000  Level Memphis Center
10:20AM 33.3197 -92.0750 84° East 353 406 41,000  Level Memphis Center
10:21AM 33.3319 -91.9583 83° East 348 400 41,000  Level Memphis Center
10:22AM 33.3417 -91.8392 84° East 348 400 41,000  Level Memphis Center
10:23AM 33.3514 -91.7200 84° East 348 400 41,000  Level Memphis Center
10:24AM 33.3547 -91.6033 88° East 348 400 41,000  Level Memphis Center
10:25AM 33.3661 -91.4889 83° East 348 400 41,000  Level Memphis Center
10:26AM 33.3756 -91.3697 85° East 348 400 41,000  Level Memphis Center
10:27AM 33.3847 -91.2528 85° East 348 400 41,000  Level Memphis Center
10:28AM 33.3961 -91.1336 83° East 348 400 41,000  Level Memphis Center
10:29AM 33.4050 -91.0142 85° East 353 406 41,000  Level Memphis Center
10:30AM 33.4161 -90.8972 83° East 353 406 41,000  Level Memphis Center
10:31AM 33.4247 -90.7803 85° East 353 406 41,000  Level Memphis Center
10:32AM 33.4356 -90.6633 84° East 353 406 41,000  Level Memphis Center
10:33AM 33.4422 -90.5389 86° East 353 406 41,000  Level Memphis Center
10:34AM 33.4525 -90.4194 84° East 358 412 41,000  Level Memphis Center
10:35AM 33.4631 -90.3025 84° East 358 412 41,000  Level Memphis Center
10:36AM 33.4650 -90.1803 89° East 358 412 41,000  Level Memphis Center
10:37AM 33.4689 -90.0608 88° East 358 412 41,000  Level Memphis Center
10:38AM 33.4708 -89.9364 89° East 358 412 41,000  Level Memphis Center
10:39AM 33.4722 -89.8169 89° East 363 418 41,000  Level Memphis Center
10:40AM 33.4739 -89.6947 89° East 363 418 41,000  Level Memphis Center
10:41AM 33.4753 -89.5753 89° East 363 418 41,000  Level Memphis Center
10:42AM 33.4786 -89.4531 88° East 363 418 41,000  Level Memphis Center
10:43AM 33.4797 -89.3311 89° East 363 418 41,000  Level Memphis Center
10:44AM 33.4806 -89.2067 90° East 363 418 41,000  Level Memphis Center
10:45AM 33.4817 -89.0844 89° East 363 418 41,000  Level Memphis Center
10:46AM 33.4822 -88.9625 90° East 363 418 41,000  Level Memphis Center
10:47AM 33.4850 -88.8353 88° East 363 418 41,000  Level Memphis Center
10:48AM 33.4856 -88.7133 90° East 363 418 41,000  Level Memphis Center
10:49AM 33.4839 -88.5864 91° East 363 418 41,000  Level Memphis Center
10:51AM 33.5106 -88.2767 84° East 375 432 41,000  Level Atlanta Center
10:52AM 33.5250 -88.1553 82° East 375 432 41,000  Level Atlanta Center
10:53AM 33.5417 -88.0289 81° East 375 432 41,000  Level Atlanta Center
10:54AM 33.5542 -87.9025 83° East 375 432 41,000  Level Atlanta Center
10:55AM 33.5706 -87.7761 81° East 380 437 41,000  Level Atlanta Center
10:56AM 33.5850 -87.6469 82° East 386 444 41,000  Level Atlanta Center
10:57AM 33.5992 -87.5153 83° East 386 444 41,000  Level Atlanta Center
10:58AM 33.6153 -87.3839 82° East 386 444 41,000  Level Atlanta Center
10:59AM 33.6292 -87.2497 83° East 391 450 41,000  Level Atlanta Center
11:00AM 33.6450 -87.1206 82° East 391 450 41,000  Level Atlanta Center
11:01AM 33.6589 -86.9861 83° East 391 450 41,000  Level Atlanta Center
11:02AM 33.6683 -86.8519 85° East 391 450 41,000  Level Atlanta Center
11:03AM 33.6667 -86.7294 91° East 397 457 41,000  Level Atlanta Center
11:04AM 33.6656 -86.5947 91° East 403 464 41,000  Level Atlanta Center
11:05AM 33.6639 -86.4597 91° East 403 464 41,000  Level Atlanta Center
11:06AM 33.6644 -86.3225 90° East 403 464 41,000  Level Atlanta Center
11:07AM 33.6628 -86.1853 91° East 403 464 41,000  Level Atlanta Center
11:08AM 33.6611 -86.0481 91° East 403 464 41,000  Level Atlanta Center
11:09AM 33.6611 -85.9058 90° East 408 470 41,000  Level Atlanta Center
11:10AM 33.6569 -85.7583 92° East 408 470 41,000  Level Atlanta Center
11:11AM 33.6547 -85.6136 91° East 414 476 41,000  Level Atlanta Center
11:12AM 33.6522 -85.4711 91° East 424 488 41,000  Level Atlanta Center
11:13AM 33.6497 -85.3289 91° East 424 488 41,000  Level Atlanta Center
11:14AM 33.6469 -85.1867 91° East 424 488 41,000  Level Atlanta Center
11:15AM 33.6442 -85.0444 91° East 424 488 41,000  Level Atlanta Center
11:16AM 33.6389 -84.8997 92° East 424 488 41,000  Level Atlanta Center
11:17AM 33.6356 -84.7672 92° East 424 488 41,000  Level Atlanta Center
11:18AM 33.6322 -84.6225 92° East 424 488 41,000  Level Atlanta Center
11:19AM 33.6392 -84.4681 87° East 424 488 41,000  Level Atlanta Center
11:20AM 33.6561 -84.3208 82° East 429 494 41,000  Level Atlanta Center
11:21AM 33.7003 -84.1786 69° East 446 513 41,000  Level Atlanta Center
11:22AM 33.7400 -84.0339 72° East 459 528 41,000  Level Atlanta Center
11:23AM 33.7775 -83.9089 70° East 448 516 41,000  Level Atlanta Center
11:25AM 33.8072 -83.7571 72° East  Level FlightAware Approximate
11:25AM 33.8561 -83.6211 72° East 443 510 41,000  Level Atlanta Center
11:26AM 33.8972 -83.4756 71° East 448 516 41,000  Level Atlanta Center
11:27AM 33.9361 -83.3328 72° East 448 516 41,000  Level Atlanta Center
11:28AM 33.9750 -83.1847 72° East 448 516 41,000  Level Atlanta Center
11:29AM 34.0136 -83.0439 72° East 442 509 41,000  Level Atlanta Center
11:30AM 34.0581 -82.8903 71° East 442 509 41,000  Level Atlanta Center
11:31AM 34.0942 -82.7469 73° East 442 509 41,000  Level Atlanta Center
11:32AM 34.1344 -82.6058 71° East 442 509 41,000  Level Atlanta Center
11:33AM 34.1725 -82.4669 72° East 437 503 41,000  Level Atlanta Center
11:34AM 34.2103 -82.3256 72° East 437 503 41,000  Level Atlanta Center
11:35AM 34.2814 -82.2011 55° Northeast 442 509 41,000  Level Atlanta Center
11:36AM 34.3717 -82.0908 45° Northeast 447 514 41,000  Level Atlanta Center
11:37AM 34.4594 -81.9831 45° Northeast 447 514 41,000  Level Atlanta Center
11:38AM 34.5514 -81.8697 45° Northeast 453 521 41,000  Level Atlanta Center
11:39AM 34.6414 -81.7614 45° Northeast 458 527 41,000  Level Atlanta Center
11:40AM 34.7289 -81.6531 45° Northeast 453 521 41,000  Level Atlanta Center
11:41AM 34.8083 -81.5519 46° Northeast 453 521 41,000  Level Atlanta Center
11:42AM 34.8958 -81.4431 46° Northeast 448 516 41,000  Level Atlanta Center
11:43AM 34.9833 -81.3339 46° Northeast 448 516 41,000  Level Atlanta Center
11:44AM 35.0706 -81.2219 46° Northeast 448 516 41,000  Level Atlanta Center
11:45AM 35.1597 -81.1097 46° Northeast 448 516 41,000  Level Atlanta Center
11:46AM 35.2486 -80.9972 46° Northeast 448 516 41,000  Level Atlanta Center
11:47AM 35.3378 -80.8869 45° Northeast 448 516 41,000  Level Atlanta Center
11:48AM 35.4225 -80.7767 47° Northeast 443 510 41,000  Level Atlanta Center
11:49AM 35.5092 -80.6686 45° Northeast 443 510 41,000  Level Atlanta Center
11:50AM 35.5939 -80.5578 47° Northeast 443 510 41,000  Level Atlanta Center
11:51AM 35.6764 -80.4519 46° Northeast 433 498 41,000  Level Atlanta Center
11:52AM 35.7608 -80.3461 45° Northeast 427 491 41,000  Level Atlanta Center
11:54AM 35.9194 -80.1394 47° Northeast 431 496 41,000  Level Washington Center
11:55AM 35.9917 -80.0511 45° Northeast 426 490 41,000  Level Washington Center
11:56AM 36.0686 -79.9400 49° Northeast 420 483 41,000  Level Washington Center
11:57AM 36.1397 -79.8203 54° Northeast 420 483 41,000 -180 Level Washington Center
11:58AM 36.2133 -79.6828 56° Northeast 430 495 40,700 -780 Descending Washington Center
11:59AM 36.2822 -79.5628 55° Northeast 430 495 39,500 -1,200 Descending Washington Center
12:00PM 36.3508 -79.4372 56° Northeast 435 501 38,300 -1,560 Descending Washington Center
12:01PM 36.4131 -79.3242 56° Northeast 435 501 36,500 -1,860 Descending Washington Center
12:02PM 36.4814 -79.2033 55° Northeast 430 495 34,700 -1,800 Descending Washington Center
12:03PM 36.5517 -79.0825 54° Northeast 430 495 32,900 -1,920 Descending Washington Center
12:04PM 36.6200 -78.9589 55° Northeast 430 495 30,900 -1,980 Descending Washington Center
12:05PM 36.6969 -78.8144 56° Northeast 444 511 29,000 -960 Descending Washington Center
12:06PM 36.7647 -78.6928 55° Northeast 443 510 29,000 -60 Level Washington Center
12:07PM 36.8217 -78.5861 56° Northeast 431 496 28,900 -540 Descending Washington Center
12:08PM 36.8914 -78.4642 54° Northeast 426 490 28,000 -480 Descending Washington Center
12:09PM 36.9592 -78.3367 56° Northeast 426 490 28,000 -420 Level Washington Center
12:10PM 37.0308 -78.2067 55° Northeast 426 490 27,200 -1,080 Descending Washington Center
12:11PM 37.0897 -78.0967 56° Northeast 426 490 25,900 -1,140 Descending Washington Center
12:12PM 37.1731 -77.9925 45° Northeast 426 490 25,000 -840 Descending Washington Center
12:13PM 37.2767 -77.9200 29° Northeast 413 475 24,200 -960 Descending Washington Center
12:14PM 37.3825 -77.8475 29° Northeast 424 488 23,100 -660 Descending Washington Center
12:15PM 37.4881 -77.7747 29° Northeast 424 488 23,000 -60 Descending Washington Center
12:16PM 37.5894 -77.7042 29° Northeast 424 488 23,000 -480 Level Washington Center
12:17PM 37.6950 -77.6283 30° Northeast 424 488 22,100 -1,020 Descending Washington Center
12:18PM 37.8006 -77.5525 30° Northeast 429 494 21,000 -1,080 Descending Washington Center
12:19PM 37.9019 -77.4786 30° Northeast 423 487 20,000 -1,200 Descending Washington Center
12:20PM 37.9989 -77.4100 29° Northeast 411 473 18,700 -1,140 Descending Washington Center
12:21PM 38.1064 -77.3361 28° Northeast 401 461 17,800 -960 Descending Washington Center
12:22PM 38.2053 -77.2669 29° Northeast 401 461 16,800 -1,020 Descending Washington Center
12:23PM 38.3044 -77.1950 30° Northeast 401 461 15,800 -1,020 Descending Washington Center
12:24PM 38.3950 -77.1228 32° Northeast 391 450 14,800 -1,500 Descending Washington Center
12:25PM 38.4753 -77.0292 42° Northeast 385 443 12,900 -1,680 Descending Washington Center
12:26PM 38.5494 -76.9403 43° Northeast 373 429 11,500 -1,260 Descending Washington Center
12:27PM 38.6128 -76.8592 45° Northeast 346 398 10,500 -1,080 Descending Washington Center
12:28PM 38.6781 -76.7803 43° Northeast 327 376 9,400 -1,260 Descending Washington Center
12:29PM 38.7292 -76.6933 53° Northeast 316 364 8,000 -1,440 Descending Washington Center
12:30PM 38.7667 -76.6000 63° Northeast 284 327 6,600 -960 Descending Potomac TRACON
12:31PM 38.8167 -76.5167 52° Northeast 252 290 6,100 -900 Descending Potomac TRACON
12:32PM 38.8667 -76.5167 360° North 211 243 4,800 -1,080 Descending Potomac TRACON
12:33PM 38.9333 -76.5167 360° North 207 238 4,000 -720 Descending Potomac TRACON
12:34PM 38.9833 -76.5000 15° North 205 236 3,500 -780 Descending Potomac TRACON
12:35PM 39.0333 -76.5167 345° North 197 227 2,600 -780 Descending Potomac TRACON
12:36PM 39.0833 -76.5667 322° Northwest 189 217 2,000 -600 Descending Potomac TRACON
12:37PM 39.1167 -76.6000 322° Northwest 188 216 1,400 -660 Descending Potomac TRACON
12:38PM 39.1500 -76.6333 322° Northwest 140 161 700 -720 Descending Potomac TRACON
12:40PM 39.1667 -76.6667 339° North  Level FlightAware Approximate
12:47PM 39.1754 -76.6683 339° North  Level Estimated
12:48PM 39.1754 -76.6683 339° North  Level Estimated
12:49PM 39.1754 -76.6683 339° North  Level Estimated
12:50PM 39.1754 -76.6683 339° North  Level Estimated